Time;durP1;ratioP1;P1;durP2;ratioP2;P2;SDS_P1;SDS_P2;PMS_P1;PMS_P2;Temp;Humidity;BMP_temperature;BMP_pressure;BME280_temperature;BME280_humidity;BME280_pressure;Samples;Min_cycle;Max_cycle;Signal;HPM_P1;HPM_P2
2023/03/27 00:00:37;;;;;;;2.03;0.30;;;;;;;-0.96;67.74;100100.97;5037972;28;20053;-68
2023/03/27 00:03:04;;;;;;;1.23;0.52;;;;;;;-0.99;67.43;100098.34;5037476;28;20045;-68
2023/03/27 00:05:30;;;;;;;0.30;0.20;;;;;;;-0.94;67.74;100108.66;5036495;28;20049;-67
2023/03/27 00:08:00;;;;;;;3.47;0.20;;;;;;;-0.95;67.73;100104.38;5036648;28;20049;-68
2023/03/27 00:10:27;;;;;;;3.53;0.30;;;;;;;-0.94;68.09;100108.66;5033591;28;20501;-68
2023/03/27 00:12:54;;;;;;;1.60;0.25;;;;;;;-0.94;68.23;100116.34;5042961;28;20163;-68
2023/03/27 00:15:22;;;;;;;0.30;0.20;;;;;;;-0.95;67.66;100107.81;5034604;28;20115;-68
2023/03/27 00:17:53;;;;;;;0.95;0.20;;;;;;;-0.94;68.07;100113.78;5036323;28;20056;-68
2023/03/27 00:20:22;;;;;;;1.30;0.30;;;;;;;-0.95;67.97;100112.94;5037403;28;20409;-68
2023/03/27 00:22:54;;;;;;;1.65;0.20;;;;;;;-0.96;67.94;100103.53;5033430;28;20049;-68
2023/03/27 00:25:22;;;;;;;1.75;0.15;;;;;;;-0.95;67.97;100112.94;5035874;28;20501;-68
2023/03/27 00:27:49;;;;;;;2.15;0.22;;;;;;;-0.95;67.88;100097.56;5037799;28;20092;-68
2023/03/27 00:30:17;;;;;;;0.85;0.22;;;;;;;-0.99;68.11;100092.38;5038127;28;20095;-68
2023/03/27 00:32:44;;;;;;;1.23;0.20;;;;;;;-0.95;68.06;100102.69;5031018;28;20056;-68
2023/03/27 00:35:13;;;;;;;2.28;0.30;;;;;;;-0.95;68.05;100095.00;5034133;28;20056;-68
2023/03/27 00:37:40;;;;;;;0.68;0.10;;;;;;;-0.95;67.77;100101.81;5036715;28;20532;-68
2023/03/27 00:40:12;;;;;;;1.20;0.52;;;;;;;-0.95;67.82;100101.81;5039792;28;20061;-68
2023/03/27 00:42:39;;;;;;;1.55;0.20;;;;;;;-0.96;67.78;100102.69;5037238;28;20654;-68
2023/03/27 00:45:07;;;;;;;2.15;0.22;;;;;;;-0.96;67.96;100090.72;5038047;28;20100;-68
2023/03/27 00:47:37;;;;;;;3.17;0.30;;;;;;;-0.96;68.12;100095.84;5038612;28;20052;-68
2023/03/27 00:50:09;;;;;;;0.73;0.30;;;;;;;-0.96;68.24;100094.97;5038477;28;20472;-68
2023/03/27 00:52:39;;;;;;;0.40;0.30;;;;;;;-0.96;68.01;100089.84;5037355;28;20106;-68
2023/03/27 00:55:10;;;;;;;4.45;0.20;;;;;;;-0.97;68.66;100088.09;5035923;28;20049;-68
2023/03/27 00:57:37;;;;;;;4.50;0.22;;;;;;;-0.98;68.33;100079.56;5039312;28;20053;-68
2023/03/27 01:00:09;;;;;;;1.88;0.40;;;;;;;-0.99;68.50;100077.84;5037377;28;20064;-68
2023/03/27 01:02:36;;;;;;;5.40;0.30;;;;;;;-0.99;68.32;100082.13;5036729;28;20049;-68
2023/03/27 01:05:03;;;;;;;1.40;0.20;;;;;;;-1.00;68.31;100077.81;5037723;28;20045;-68
2023/03/27 01:07:30;;;;;;;0.52;0.30;;;;;;;-1.01;68.09;100071.81;5038560;28;20052;-68
2023/03/27 01:10:00;;;;;;;0.85;0.40;;;;;;;-1.00;68.61;100073.53;5035174;28;20050;-68
2023/03/27 01:12:35;;;;;;;0.82;0.20;;;;;;;-0.99;68.03;100077.84;5040749;28;20048;-68
2023/03/27 01:15:19;;;;;;;0.98;0.40;;;;;;;-0.98;68.13;100076.13;5038813;28;20041;-68
2023/03/27 01:18:05;;;;;;;0.30;0.20;;;;;;;-0.98;68.26;100073.56;5034378;28;20087;-68
2023/03/27 01:21:08;;;;;;;4.70;0.55;;;;;;;-0.99;68.22;100070.16;5009825;28;21439;-68
2023/03/27 01:24:10;;;;;;;0.40;0.40;;;;;;;-1.01;67.93;100071.81;5022096;28;20053;-68
2023/03/27 01:27:01;;;;;;;2.20;0.32;;;;;;;-1.02;68.70;100069.25;5032322;28;20056;-68
2023/03/27 01:30:02;;;;;;;0.40;0.30;;;;;;;-1.03;68.63;100068.34;5039780;28;20045;-68
2023/03/27 01:32:55;;;;;;;2.72;0.28;;;;;;;-1.03;68.30;100067.50;5038331;28;20140;-68
2023/03/27 01:35:36;;;;;;;5.32;0.30;;;;;;;-1.03;68.50;100072.63;5040035;28;20044;-68
2023/03/27 01:38:20;;;;;;;0.93;0.30;;;;;;;-1.04;68.65;100070.91;5040758;28;20138;-68
2023/03/27 01:40:53;;;;;;;2.28;0.20;;;;;;;-1.03;68.52;100072.63;5036418;28;20049;-67
2023/03/27 01:43:30;;;;;;;1.45;0.20;;;;;;;-1.05;68.65;100080.31;5042547;28;20083;-68
2023/03/27 01:46:03;;;;;;;0.45;0.25;;;;;;;-1.05;68.74;100072.63;5041762;28;20049;-69
2023/03/27 01:48:37;;;;;;;0.95;0.20;;;;;;;-1.05;68.51;100076.84;5039253;28;20498;-68
2023/03/27 01:51:10;;;;;;;2.30;0.35;;;;;;;-1.07;68.82;100076.84;5042621;28;20048;-68
2023/03/27 01:53:41;;;;;;;5.25;0.30;;;;;;;-1.06;68.68;100090.53;5039510;28;20498;-68
2023/03/27 01:56:16;;;;;;;1.00;0.30;;;;;;;-1.07;68.81;100076.84;5044041;28;20048;-68
2023/03/27 01:58:48;;;;;;;0.70;0.30;;;;;;;-1.06;68.99;100077.72;5038595;28;20133;-68
2023/03/27 02:01:19;;;;;;;0.70;0.20;;;;;;;-1.07;68.73;100081.13;5037188;28;20041;-68
2023/03/27 02:03:50;;;;;;;0.50;0.30;;;;;;;-1.08;68.88;100075.13;5039959;28;20059;-68
2023/03/27 02:06:20;;;;;;;1.67;0.30;;;;;;;-1.09;69.00;100080.22;5040628;28;20132;-68
2023/03/27 02:08:51;;;;;;;0.30;0.20;;;;;;;-1.09;69.29;100078.50;5037528;28;20060;-68
2023/03/27 02:11:22;;;;;;;1.05;0.22;;;;;;;-1.09;68.88;100072.53;5043650;28;20052;-78
2023/03/27 02:13:53;;;;;;;1.40;0.20;;;;;;;-1.09;68.96;100077.66;5045305;28;20497;-78
2023/03/27 02:16:25;;;;;;;2.30;0.20;;;;;;;-1.11;69.14;100082.78;5045829;28;20049;-79
2023/03/27 02:18:58;;;;;;;6.18;0.52;;;;;;;-1.10;68.74;100083.63;5044637;28;20048;-78
2023/03/27 02:21:25;;;;;;;1.77;0.20;;;;;;;-1.11;69.22;100087.00;5049490;28;20532;-78
2023/03/27 02:23:52;;;;;;;0.60;0.20;;;;;;;-1.11;68.73;100084.44;5054047;28;20079;-78
2023/03/27 02:26:20;;;;;;;0.75;0.30;;;;;;;-1.11;69.19;100089.56;5050395;28;20053;-72
2023/03/27 02:29:02;;;;;;;0.70;0.20;;;;;;;-1.10;69.23;100086.19;5038422;28;20057;-72
2023/03/27 02:31:44;;;;;;;2.15;0.35;;;;;;;-1.13;69.25;100082.72;5043702;28;20050;-73
2023/03/27 02:34:25;;;;;;;0.63;0.20;;;;;;;-1.14;69.14;100070.75;5038680;28;20413;-72
2023/03/27 02:37:00;;;;;;;3.08;0.30;;;;;;;-1.22;69.68;100067.19;5036849;28;20052;-72
2023/03/27 02:39:35;;;;;;;0.80;0.20;;;;;;;-1.13;68.84;100085.28;5039449;28;20058;-72
2023/03/27 02:42:12;;;;;;;4.53;0.28;;;;;;;-1.13;68.79;100092.13;5040842;28;20055;-72
2023/03/27 02:44:43;;;;;;;5.43;0.40;;;;;;;-1.13;69.46;100079.31;5036630;28;20051;-72
2023/03/27 02:47:15;;;;;;;0.85;0.20;;;;;;;-1.13;69.20;100075.03;5041685;28;20056;-73
2023/03/27 02:49:46;;;;;;;1.38;0.30;;;;;;;-1.14;69.32;100081.00;5037685;28;20049;-74
2023/03/27 02:52:18;;;;;;;2.63;0.20;;;;;;;-1.14;69.25;100091.25;5039855;28;20068;-73
2023/03/27 02:54:50;;;;;;;3.38;0.40;;;;;;;-1.11;69.13;100087.00;5036111;28;20050;-72
2023/03/27 02:57:25;;;;;;;1.02;0.30;;;;;;;-1.13;69.09;100092.97;5041127;28;20049;-72
2023/03/27 02:59:56;;;;;;;0.90;0.28;;;;;;;-1.14;69.45;100091.25;5039663;28;20417;-72
2023/03/27 03:02:31;;;;;;;0.65;0.20;;;;;;;-1.11;69.46;100092.13;5038808;28;20055;-72
2023/03/27 03:05:02;;;;;;;0.82;0.32;;;;;;;-1.13;69.43;100092.97;5035728;28;20045;-73
2023/03/27 03:07:29;;;;;;;0.50;0.30;;;;;;;-1.14;69.14;100096.41;5039795;28;20527;-73
2023/03/27 03:09:57;;;;;;;1.02;0.30;;;;;;;-1.14;68.91;100077.56;5037764;28;20045;-72
2023/03/27 03:12:25;;;;;;;2.25;0.20;;;;;;;-1.14;69.18;100087.81;5028930;28;20413;-72
2023/03/27 03:14:52;;;;;;;0.73;0.40;;;;;;;-1.15;69.23;100094.66;5038857;28;20512;-71
2023/03/27 03:17:19;;;;;;;0.70;0.20;;;;;;;-1.17;69.03;100091.22;5034362;28;20042;-72
2023/03/27 03:19:46;;;;;;;1.15;0.50;;;;;;;-1.18;69.33;100099.72;5040943;28;20053;-72
2023/03/27 03:22:13;;;;;;;0.63;0.30;;;;;;;-1.17;69.39;100093.78;5037267;28;20045;-72
2023/03/27 03:24:42;;;;;;;2.40;0.30;;;;;;;-1.17;69.26;100101.47;5038808;28;20056;-72
2023/03/27 03:27:09;;;;;;;0.82;0.30;;;;;;;-1.20;69.34;100106.50;5041029;28;20518;-72
2023/03/27 03:29:38;;;;;;;0.55;0.30;;;;;;;-1.19;69.02;100108.25;5041651;28;20478;-73
2023/03/27 03:32:06;;;;;;;1.10;0.20;;;;;;;-1.19;68.95;100104.84;5037519;28;20874;-72
2023/03/27 03:34:33;;;;;;;0.30;0.10;;;;;;;-1.21;69.42;100097.09;5038399;28;20046;-73
2023/03/27 03:37:00;;;;;;;1.17;0.50;;;;;;;-1.21;69.33;100104.78;5035291;28;20053;-72
2023/03/27 03:39:27;;;;;;;0.47;0.25;;;;;;;-1.22;69.11;100103.06;5038498;28;20056;-73
2023/03/27 03:41:54;;;;;;;0.40;0.20;;;;;;;-1.24;69.06;100104.72;5037539;28;20052;-72
2023/03/27 03:44:21;;;;;;;2.00;0.30;;;;;;;-1.23;68.88;100103.03;5011127;28;20555;-73
2023/03/27 03:46:49;;;;;;;2.95;0.20;;;;;;;-1.23;69.73;100106.44;5036451;28;20052;-73
2023/03/27 03:49:16;;;;;;;3.25;0.50;;;;;;;-1.24;69.15;100115.00;5039253;28;20053;-72
2023/03/27 03:51:43;;;;;;;0.50;0.20;;;;;;;-1.25;69.36;100110.72;5038863;28;20046;-72
2023/03/27 03:54:10;;;;;;;1.15;0.30;;;;;;;-1.26;68.91;100123.47;5036274;28;20573;-72
2023/03/27 03:56:40;;;;;;;2.13;0.50;;;;;;;-1.28;69.11;100123.47;5035340;28;20061;-72
2023/03/27 03:59:07;;;;;;;0.57;0.30;;;;;;;-1.29;68.92;100121.72;5037226;28;20429;-72
2023/03/27 04:01:34;;;;;;;0.90;0.32;;;;;;;-1.30;68.86;100122.56;5036571;28;20055;-72
2023/03/27 04:04:02;;;;;;;3.38;0.70;;;;;;;-1.33;69.07;100119.94;5037233;28;20687;-72
2023/03/27 04:06:29;;;;;;;2.35;0.30;;;;;;;-1.31;68.93;100122.53;5037314;28;20045;-72
2023/03/27 04:08:57;;;;;;;0.68;0.30;;;;;;;-1.33;69.20;100116.53;5038150;28;20123;-72
2023/03/27 04:11:23;;;;;;;0.45;0.30;;;;;;;-1.35;69.20;100119.03;5038384;28;20045;-72
2023/03/27 04:13:50;;;;;;;2.15;0.30;;;;;;;-1.36;69.43;100119.88;5030528;28;20054;-72
2023/03/27 04:16:17;;;;;;;0.73;0.20;;;;;;;-1.37;69.25;100120.69;5033800;28;20135;-71
2023/03/27 04:18:45;;;;;;;1.75;0.30;;;;;;;-1.37;68.79;100118.13;5043407;28;20052;-72
2023/03/27 04:21:14;;;;;;;1.20;0.20;;;;;;;-1.41;69.15;100111.25;5006155;28;20145;-72
2023/03/27 04:23:41;;;;;;;1.20;0.30;;;;;;;-1.38;69.25;100124.09;5036820;28;20046;-72
2023/03/27 04:26:10;;;;;;;0.45;0.30;;;;;;;-1.39;69.41;100119.84;5038142;28;20045;-72
2023/03/27 04:28:39;;;;;;;0.98;0.30;;;;;;;-1.40;69.16;100123.22;5033748;28;20136;-72
2023/03/27 04:31:09;;;;;;;0.70;0.30;;;;;;;-1.41;69.20;100124.91;5035568;28;20052;-72
2023/03/27 04:33:38;;;;;;;0.40;0.28;;;;;;;-1.42;69.12;100124.91;5032635;28;20057;-72
2023/03/27 04:36:06;;;;;;;1.65;0.30;;;;;;;-1.43;69.19;100123.16;5035183;28;20045;-72
2023/03/27 04:38:35;;;;;;;0.90;0.22;;;;;;;-1.48;69.25;100119.63;5038325;28;20048;-72
2023/03/27 04:41:02;;;;;;;0.82;0.57;;;;;;;-1.48;69.26;100127.31;5036293;28;20664;-72
2023/03/27 04:43:29;;;;;;;0.50;0.35;;;;;;;-1.48;68.77;100128.19;5038254;28;20151;-72
2023/03/27 04:45:56;;;;;;;3.33;0.40;;;;;;;-1.48;69.48;100137.56;5044864;28;20432;-71
2023/03/27 04:48:23;;;;;;;0.50;0.32;;;;;;;-1.49;68.90;100133.28;5040671;28;20053;-72
2023/03/27 04:50:50;;;;;;;3.75;0.40;;;;;;;-1.49;69.11;100143.53;5042967;28;20442;-72
2023/03/27 04:53:19;;;;;;;3.33;0.40;;;;;;;-1.57;68.96;100128.00;5043786;28;20059;-72
2023/03/27 04:55:49;;;;;;;1.15;0.30;;;;;;;-1.62;69.16;100116.81;5039014;28;20144;-72
2023/03/27 04:58:17;;;;;;;0.40;0.30;;;;;;;-1.53;68.87;100140.03;5044031;28;20128;-72
2023/03/27 05:00:49;;;;;;;0.90;0.40;;;;;;;-1.52;69.12;100133.22;5043981;28;20060;-72
2023/03/27 05:03:16;;;;;;;1.42;0.50;;;;;;;-1.52;69.01;100138.34;5042200;28;20048;-72
2023/03/27 05:05:43;;;;;;;2.25;0.40;;;;;;;-1.52;69.10;100138.34;5040279;28;20047;-72
2023/03/27 05:08:10;;;;;;;1.38;0.43;;;;;;;-1.53;69.18;100139.19;5042318;28;20051;-73
2023/03/27 05:10:37;;;;;;;1.13;0.40;;;;;;;-1.55;69.19;100136.59;5036853;28;20107;-72
2023/03/27 05:13:06;;;;;;;0.68;0.30;;;;;;;-1.54;68.74;100129.75;5037858;28;20513;-71
2023/03/27 05:15:34;;;;;;;0.93;0.38;;;;;;;-1.56;68.90;100134.88;5033606;28;20512;-72
2023/03/27 05:18:01;;;;;;;0.40;0.30;;;;;;;-1.57;68.98;100125.44;5037855;28;20048;-72
2023/03/27 05:20:28;;;;;;;2.88;0.50;;;;;;;-1.59;68.80;100130.53;5041699;28;20424;-72
2023/03/27 05:22:56;;;;;;;0.50;0.30;;;;;;;-1.59;68.70;100135.66;5034624;28;20421;-73
2023/03/27 05:25:23;;;;;;;1.05;0.30;;;;;;;-1.60;68.79;100131.34;5041991;28;20497;-72
2023/03/27 05:27:51;;;;;;;1.95;0.55;;;;;;;-1.64;68.77;100129.59;5034099;28;20044;-72
2023/03/27 05:30:21;;;;;;;1.70;0.40;;;;;;;-1.66;68.92;100127.81;5040183;28;20052;-71
2023/03/27 05:32:50;;;;;;;2.67;0.38;;;;;;;-1.67;68.51;100138.91;5041947;28;20406;-71
2023/03/27 05:35:19;;;;;;;0.85;0.50;;;;;;;-1.69;69.05;100141.41;5040383;28;20045;-71
2023/03/27 05:37:47;;;;;;;2.35;0.40;;;;;;;-1.69;69.30;100149.09;5039209;28;20049;-72
2023/03/27 05:40:15;;;;;;;4.22;0.40;;;;;;;-1.70;68.98;100144.81;5039952;28;20097;-71
2023/03/27 05:42:44;;;;;;;0.60;0.30;;;;;;;-1.71;68.68;100140.50;5032886;28;20416;-71
2023/03/27 05:45:12;;;;;;;2.00;0.40;;;;;;;-1.72;68.78;100138.78;5037687;28;20072;-71
2023/03/27 05:47:49;;;;;;;3.55;0.50;;;;;;;-1.73;68.76;100139.63;5043381;28;20488;-71
2023/03/27 05:50:18;;;;;;;0.85;0.30;;;;;;;-1.73;68.93;100141.34;5041770;28;20045;-71
2023/03/27 05:52:45;;;;;;;0.75;0.75;;;;;;;-1.75;69.21;100131.06;5042453;28;20053;-72
2023/03/27 05:55:13;;;;;;;1.38;0.40;;;;;;;-1.74;69.22;100126.78;5037645;28;20094;-73
2023/03/27 05:57:41;;;;;;;0.50;0.40;;;;;;;-1.75;68.86;100131.06;5039042;28;20127;-71
2023/03/27 06:00:12;;;;;;;0.43;0.30;;;;;;;-1.75;69.30;100133.63;5037902;28;20048;-71
2023/03/27 06:02:41;;;;;;;1.40;0.50;;;;;;;-1.77;69.20;100132.72;5037535;28;20508;-71
2023/03/27 06:05:14;;;;;;;1.48;0.50;;;;;;;-1.77;68.78;100140.38;5040296;28;20051;-71
2023/03/27 06:07:42;;;;;;;0.50;0.20;;;;;;;-1.78;69.36;100141.22;5037811;28;20050;-71
2023/03/27 06:10:11;;;;;;;2.83;0.30;;;;;;;-1.78;69.30;100143.78;5038680;28;20799;-71
2023/03/27 06:12:38;;;;;;;0.32;0.30;;;;;;;-1.79;68.81;100142.06;5026422;28;20260;-73
2023/03/27 06:15:08;;;;;;;0.60;0.22;;;;;;;-1.78;69.35;100143.78;5025808;28;20056;-72
2023/03/27 06:17:35;;;;;;;4.10;3.70;;;;;;;-1.78;69.20;100146.34;5036346;28;20064;-71
2023/03/27 06:20:11;;;;;;;3.15;0.38;;;;;;;-1.78;69.21;100151.47;5041166;28;20048;-71
2023/03/27 06:22:42;;;;;;;0.63;0.30;;;;;;;-1.78;69.12;100150.63;5041253;28;20056;-72
2023/03/27 06:25:10;;;;;;;2.65;0.40;;;;;;;-1.79;69.20;100149.75;5038770;28;20043;-72
2023/03/27 06:27:38;;;;;;;0.60;0.30;;;;;;;-1.85;69.00;100131.69;5039445;28;20052;-74
2023/03/27 06:30:06;;;;;;;0.50;0.30;;;;;;;-1.78;69.02;100143.78;5038759;28;20055;-70
2023/03/27 06:32:34;;;;;;;2.45;0.30;;;;;;;-1.78;69.43;100146.34;5038177;28;20049;-75
2023/03/27 06:35:02;;;;;;;0.88;0.38;;;;;;;-1.81;68.81;100143.72;5038089;28;20076;-71
2023/03/27 06:37:32;;;;;;;0.32;0.20;;;;;;;-1.79;69.28;100139.50;5040389;28;20091;-71
2023/03/27 06:40:00;;;;;;;1.05;0.40;;;;;;;-1.77;68.87;100142.09;5038868;28;20456;-71
2023/03/27 06:42:27;;;;;;;1.70;0.50;;;;;;;-1.78;69.30;100145.50;5036524;28;20045;-74
2023/03/27 06:44:54;;;;;;;2.05;0.40;;;;;;;-1.76;69.30;100149.81;5038574;28;20412;-74
2023/03/27 06:47:21;;;;;;;0.43;0.40;;;;;;;-1.76;69.05;100149.81;5039483;28;20050;-72
2023/03/27 06:49:48;;;;;;;0.82;0.30;;;;;;;-1.75;69.17;100153.25;5037867;28;20056;-73
2023/03/27 06:52:15;;;;;;;3.42;0.40;;;;;;;-1.74;69.33;100168.63;5037868;28;20500;-73
2023/03/27 06:54:42;;;;;;;1.33;0.38;;;;;;;-1.74;69.07;100150.69;5039219;28;20156;-74
2023/03/27 06:57:10;;;;;;;0.60;0.28;;;;;;;-1.79;69.23;100149.75;5035870;28;20049;-73
2023/03/27 06:59:37;;;;;;;0.57;0.32;;;;;;;-1.73;68.97;100154.16;5039924;28;20073;-73
2023/03/27 07:02:03;;;;;;;0.55;0.30;;;;;;;-1.72;69.11;100158.41;5038510;28;20485;-74
2023/03/27 07:04:32;;;;;;;1.05;0.38;;;;;;;-1.77;69.11;100152.34;5034601;28;20053;-73
2023/03/27 07:06:59;;;;;;;0.60;0.30;;;;;;;-1.73;68.94;100160.13;5038796;28;20052;-74
2023/03/27 07:09:26;;;;;;;0.50;0.30;;;;;;;-1.71;69.01;100163.56;5038182;28;20056;-72
2023/03/27 07:11:52;;;;;;;1.85;0.30;;;;;;;-1.71;68.83;100157.56;5036625;28;20053;-71
2023/03/27 07:14:21;;;;;;;0.70;0.45;;;;;;;-1.72;69.21;100161.84;5039220;28;20099;-73
2023/03/27 07:16:47;;;;;;;1.83;0.40;;;;;;;-1.70;68.52;100165.31;5033971;28;20139;-73
2023/03/27 07:19:14;;;;;;;0.85;0.38;;;;;;;-1.70;68.96;100165.31;5037075;28;20041;-73
2023/03/27 07:21:41;;;;;;;1.95;0.50;;;;;;;-1.70;69.17;100164.44;5038748;28;20057;-72
2023/03/27 07:24:08;;;;;;;1.67;0.25;;;;;;;-1.68;69.13;100155.09;5037018;28;20065;-74
2023/03/27 07:26:35;;;;;;;2.65;1.13;;;;;;;-1.65;68.90;100156.03;5036605;28;20056;-76
2023/03/27 07:29:02;;;;;;;0.77;0.40;;;;;;;-1.63;68.66;100161.16;5040050;28;20493;-75
2023/03/27 07:31:31;;;;;;;0.38;0.20;;;;;;;-1.62;69.11;100162.91;5039492;28;20045;-78
2023/03/27 07:33:57;;;;;;;1.35;0.30;;;;;;;-1.62;69.21;100163.78;5038205;28;20050;-77
2023/03/27 07:36:25;;;;;;;0.47;0.30;;;;;;;-1.59;69.06;100155.28;5042298;28;20390;-74
2023/03/27 07:38:52;;;;;;;1.58;0.40;;;;;;;-1.59;68.89;100151.03;5039584;28;20453;-74
2023/03/27 07:41:19;;;;;;;2.55;0.38;;;;;;;-1.55;68.81;100161.34;5038525;28;20051;-76
2023/03/27 07:43:46;;;;;;;2.38;0.40;;;;;;;-1.55;68.63;100154.50;5044448;28;20051;-77
2023/03/27 07:46:13;;;;;;;0.77;0.28;;;;;;;-1.52;69.28;100158.84;5043518;28;20045;-78
2023/03/27 07:48:41;;;;;;;0.70;0.17;;;;;;;-1.50;68.60;100158.03;5043491;28;20520;-78
2023/03/27 07:51:09;;;;;;;1.27;0.50;;;;;;;-1.49;69.03;100161.47;5043337;28;20056;-75
2023/03/27 07:53:36;;;;;;;2.25;0.38;;;;;;;-1.49;68.89;100156.34;5043398;28;20490;-75
2023/03/27 07:56:03;;;;;;;1.05;0.40;;;;;;;-1.54;68.88;100142.56;5028816;28;20053;-74
2023/03/27 07:58:30;;;;;;;0.60;0.17;;;;;;;-1.44;69.40;100155.59;5016641;28;20683;-74
2023/03/27 08:00:59;;;;;;;1.92;0.40;;;;;;;-1.45;68.83;100153.88;5020221;28;20041;-74
2023/03/27 08:03:26;;;;;;;1.48;0.30;;;;;;;-1.41;69.10;100157.34;5015718;28;20052;-75
2023/03/27 08:05:57;;;;;;;2.20;0.30;;;;;;;-1.39;68.50;100173.63;5018307;28;20049;-73
2023/03/27 08:08:24;;;;;;;0.43;0.25;;;;;;;-1.39;69.30;100161.69;5016349;28;20052;-73
2023/03/27 08:10:53;;;;;;;2.28;0.30;;;;;;;-1.38;69.11;100152.28;5014187;28;20053;-73
2023/03/27 08:13:20;;;;;;;1.77;0.30;;;;;;;-1.33;69.18;100160.94;5017636;28;20046;-72
2023/03/27 08:15:47;;;;;;;0.70;0.35;;;;;;;-1.30;68.75;100157.56;5013955;28;20053;-71
2023/03/27 08:18:14;;;;;;;1.13;0.40;;;;;;;-1.27;68.81;100161.06;5020285;28;20052;-75
2023/03/27 08:20:41;;;;;;;0.70;0.50;;;;;;;-1.24;69.35;100158.53;5018411;28;20533;-73
2023/03/27 08:23:09;;;;;;;0.60;0.30;;;;;;;-1.21;68.89;100166.28;5020029;28;20045;-73
2023/03/27 08:25:36;;;;;;;0.40;0.30;;;;;;;-1.20;69.20;100157.75;5019054;28;20049;-72
2023/03/27 08:28:03;;;;;;;0.60;0.30;;;;;;;-1.20;68.60;100164.59;5018739;28;20041;-71
2023/03/27 08:30:30;;;;;;;0.70;0.30;;;;;;;-1.17;68.85;100162.97;5019108;28;20176;-71
2023/03/27 08:32:59;;;;;;;2.83;0.40;;;;;;;-1.14;68.97;100172.38;5018750;28;20053;-71
2023/03/27 08:35:26;;;;;;;0.40;0.28;;;;;;;-1.11;68.64;100171.59;5018728;28;20482;-71
2023/03/27 08:37:52;;;;;;;1.48;0.40;;;;;;;-1.10;69.21;100169.06;5018675;28;20049;-72
2023/03/27 08:40:26;;;;;;;2.05;0.60;;;;;;;-1.16;68.78;100154.44;5017867;28;20474;-74
2023/03/27 08:42:56;;;;;;;1.85;0.30;;;;;;;-1.05;69.17;100171.69;5019624;28;20073;-73
2023/03/27 08:45:28;;;;;;;1.45;0.35;;;;;;;-1.00;68.32;100168.38;5019414;28;20053;-72
2023/03/27 08:48:00;;;;;;;1.13;0.40;;;;;;;-0.96;68.53;100174.47;5019787;28;20037;-72
2023/03/27 08:50:34;;;;;;;1.00;0.40;;;;;;;-0.92;68.39;100178.78;5018386;28;20049;-72
2023/03/27 08:53:06;;;;;;;2.92;0.88;;;;;;;-0.89;68.66;100175.41;5018519;28;20049;-72
2023/03/27 08:55:40;;;;;;;0.88;0.25;;;;;;;-0.86;68.78;100176.34;5022794;28;20068;-73
2023/03/27 08:58:16;;;;;;;0.90;0.30;;;;;;;-0.83;68.40;100178.09;5038438;28;20041;-73
2023/03/27 09:00:44;;;;;;;0.38;0.15;;;;;;;-0.83;68.47;100173.81;5036101;28;20366;-73
2023/03/27 09:03:18;;;;;;;1.35;0.30;;;;;;;-0.81;68.14;100173.88;5036746;28;20053;-73
2023/03/27 09:05:49;;;;;;;1.48;0.60;;;;;;;-0.74;68.16;100186.84;5036691;28;20053;-74
2023/03/27 09:08:32;;;;;;;2.95;0.75;;;;;;;-0.71;68.90;100188.59;5039285;28;20722;-71
2023/03/27 09:11:05;;;;;;;0.32;0.25;;;;;;;-0.68;68.31;100178.38;5038064;28;20092;-71
2023/03/27 09:13:38;;;;;;;0.95;0.22;;;;;;;-0.68;68.24;100189.50;5035381;28;20397;-70
2023/03/27 09:16:12;;;;;;;3.30;0.32;;;;;;;-0.68;68.04;100193.78;5039129;28;20045;-70
2023/03/27 09:18:47;;;;;;;0.40;0.30;;;;;;;-0.66;67.81;100191.22;5037545;28;20041;-70
2023/03/27 09:21:18;;;;;;;0.82;0.38;;;;;;;-0.65;68.06;100188.69;5040811;28;20600;-72
2023/03/27 09:23:46;;;;;;;0.88;0.30;;;;;;;-0.63;68.37;100188.69;5040609;28;20504;-72
2023/03/27 09:26:20;;;;;;;0.75;0.38;;;;;;;-0.58;67.96;100189.66;5035494;28;20049;-71
2023/03/27 09:28:50;;;;;;;2.80;0.47;;;;;;;-0.56;68.16;100190.56;5038207;28;20413;-73
2023/03/27 09:31:25;;;;;;;2.63;0.40;;;;;;;-0.53;68.00;100196.59;5043846;28;20075;-71
2023/03/27 09:33:52;;;;;;;2.15;0.30;;;;;;;-0.51;67.19;100188.94;5041343;28;20069;-74
2023/03/27 09:36:20;;;;;;;0.88;0.30;;;;;;;-0.50;67.46;100195.78;5040088;28;20041;-73
2023/03/27 09:38:51;;;;;;;1.55;0.40;;;;;;;-0.48;68.09;100200.09;5039963;28;20041;-74
2023/03/27 09:41:22;;;;;;;0.52;0.40;;;;;;;-0.46;67.99;100197.53;5043551;28;20072;-73
2023/03/27 09:43:55;;;;;;;0.88;0.20;;;;;;;-0.43;67.97;100196.75;5039940;28;20059;-73
2023/03/27 09:46:26;;;;;;;4.15;0.60;;;;;;;-0.41;67.33;100195.06;5043350;28;20048;-73
2023/03/27 09:48:59;;;;;;;0.93;0.40;;;;;;;-0.39;67.70;100196.81;5040385;28;20053;-74
2023/03/27 09:51:40;;;;;;;1.75;0.47;;;;;;;-0.34;67.63;100200.34;5040765;28;20049;-73
2023/03/27 09:54:08;;;;;;;0.30;0.22;;;;;;;-0.32;67.26;100190.09;5044384;28;20127;-74
2023/03/27 09:56:40;;;;;;;0.85;0.35;;;;;;;-0.30;66.82;100196.97;5028749;28;20498;-74
2023/03/27 09:59:23;;;;;;;0.10;0.10;;;;;;;-0.27;67.68;100197.00;5021926;28;20046;-74
2023/03/27 10:01:52;;;;;;;0.50;0.32;;;;;;;-0.27;67.47;100202.16;5016257;28;20041;-74
2023/03/27 10:04:21;;;;;;;0.60;0.60;;;;;;;-0.26;67.26;100198.75;5023228;28;20128;-74
2023/03/27 10:06:56;;;;;;;1.85;0.35;;;;;;;-0.25;66.67;100209.88;5020530;28;20108;-73
2023/03/27 10:09:25;;;;;;;1.15;0.40;;;;;;;-0.28;66.93;100203.00;5020893;28;20057;-74
2023/03/27 10:12:03;;;;;;;0.90;0.20;;;;;;;-0.29;66.81;100206.38;5022076;28;20049;-73
2023/03/27 10:14:33;;;;;;;0.30;0.20;;;;;;;-0.28;67.20;100202.13;5024798;28;20453;-73
2023/03/27 10:17:00;;;;;;;1.60;0.30;;;;;;;-0.29;67.14;100208.94;5017993;28;20125;-73
2023/03/27 10:19:30;;;;;;;0.52;0.20;;;;;;;-0.29;66.63;100208.94;5020877;28;20488;-73
2023/03/27 10:22:02;;;;;;;1.17;0.43;;;;;;;-0.26;66.19;100208.13;5018772;28;20049;-73
2023/03/27 10:24:32;;;;;;;0.80;0.30;;;;;;;-0.25;66.80;100209.88;5020994;28;20859;-73
2023/03/27 10:27:04;;;;;;;0.95;0.30;;;;;;;-0.26;66.70;100209.03;5019683;28;20449;-73
2023/03/27 10:29:33;;;;;;;0.40;0.30;;;;;;;-0.24;66.88;100219.31;5020941;28;20053;-73
2023/03/27 10:32:02;;;;;;;2.25;0.43;;;;;;;-0.22;67.20;100221.91;5023317;28;20102;-72
2023/03/27 10:34:35;;;;;;;2.90;0.30;;;;;;;-0.30;66.69;100209.81;5021329;28;20049;-73
2023/03/27 10:37:03;;;;;;;1.25;0.25;;;;;;;-0.25;66.40;100223.59;5020686;28;20054;-73
2023/03/27 10:39:35;;;;;;;0.82;0.30;;;;;;;-0.24;66.38;100232.13;5017521;28;20078;-73
2023/03/27 10:42:09;;;;;;;1.08;0.40;;;;;;;-0.27;66.36;100225.25;5020391;28;20081;-73
2023/03/27 10:44:37;;;;;;;0.82;0.30;;;;;;;-0.27;66.54;100240.66;5021629;28;20514;-73
2023/03/27 10:47:05;;;;;;;0.60;0.30;;;;;;;-0.27;66.84;100238.09;5021503;28;20054;-73
2023/03/27 10:49:41;;;;;;;2.72;0.20;;;;;;;-0.25;67.08;100238.97;5022441;28;20452;-73
2023/03/27 10:52:14;;;;;;;;;;;;;;;-0.24;66.20;100248.41;5020497;28;20041;-74
2023/03/27 10:54:45;;;;;;;0.35;0.20;;;;;;;-0.25;66.46;100246.69;5018350;28;19921;-73
2023/03/27 10:57:19;;;;;;;0.20;0.10;;;;;;;-0.26;66.60;100249.22;5034856;28;20061;-73
2023/03/27 10:59:51;;;;;;;2.45;0.40;;;;;;;-0.28;66.30;100256.91;5039796;28;20059;-73
2023/03/27 11:02:23;;;;;;;1.50;0.45;;;;;;;-0.26;66.29;100254.34;5032565;28;20045;-73
2023/03/27 11:04:56;;;;;;;2.05;0.80;;;;;;;-0.32;66.64;100249.09;5031368;28;20059;-73
2023/03/27 11:07:32;;;;;;;0.55;0.32;;;;;;;-0.27;66.17;100268.88;5029679;28;21225;-73
2023/03/27 11:10:04;;;;;;;3.00;0.60;;;;;;;-0.26;66.15;100262.03;5038447;28;20060;-74
2023/03/27 11:12:36;;;;;;;1.98;0.55;;;;;;;-0.27;66.69;100263.75;5036772;28;20517;-73
2023/03/27 11:15:12;;;;;;;2.05;0.30;;;;;;;-0.29;66.37;100260.28;5036902;28;20083;-74
2023/03/27 11:17:44;;;;;;;1.42;0.40;;;;;;;-0.30;65.99;100258.56;5037451;28;20041;-72
2023/03/27 11:20:21;;;;;;;0.50;0.50;;;;;;;-0.30;65.80;100261.13;5032421;28;20053;-73
2023/03/27 11:22:54;;;;;;;0.55;0.30;;;;;;;-0.31;66.50;100258.56;5041277;28;20428;-73
2023/03/27 11:25:32;;;;;;;1.77;0.40;;;;;;;-0.32;66.20;100255.09;5037611;28;20041;-73
2023/03/27 11:28:09;;;;;;;2.85;0.65;;;;;;;-0.32;66.45;100257.66;5037920;28;20052;-73
2023/03/27 11:30:43;;;;;;;1.65;0.70;;;;;;;-0.31;66.05;100256.84;5041144;28;20054;-72
2023/03/27 11:33:31;;;;;;;0.60;0.43;;;;;;;-0.30;65.96;100248.28;5040109;28;20045;-73
2023/03/27 11:36:07;;;;;;;0.40;0.20;;;;;;;-0.29;66.73;100254.28;5038241;28;20456;-75
2023/03/27 11:38:38;;;;;;;0.68;0.35;;;;;;;-0.29;66.74;100254.28;5038218;28;20064;-74